createdAt,value
2016-07-27T00:00:58.636Z,956.43
2016-07-27T00:01:58.663Z,956.44
2016-07-27T00:02:58.712Z,956.42
2016-07-27T00:03:58.720Z,956.41
2016-07-27T00:04:58.748Z,956.39
2016-07-27T00:05:58.781Z,956.38
2016-07-27T00:06:58.811Z,956.36
2016-07-27T00:07:58.831Z,956.34
2016-07-27T00:08:58.860Z,956.33
2016-07-27T00:09:58.887Z,956.34
2016-07-27T00:10:58.931Z,956.32
2016-07-27T00:11:58.943Z,956.32
2016-07-27T00:12:58.971Z,956.32
2016-07-27T00:13:58.997Z,956.33
2016-07-27T00:14:59.027Z,956.31
2016-07-27T00:15:59.055Z,956.27
2016-07-27T00:16:59.081Z,956.25
2016-07-27T00:17:59.109Z,956.19
2016-07-27T00:18:59.148Z,956.21
2016-07-27T00:20:59.201Z,956.22
2016-07-27T00:21:59.222Z,956.24
2016-07-27T00:22:59.249Z,956.22
2016-07-27T00:23:59.276Z,956.25
2016-07-27T00:24:59.305Z,956.23
2016-07-27T00:25:59.333Z,956.23
2016-07-27T00:26:59.363Z,956.24
2016-07-27T00:27:59.388Z,956.22
2016-07-27T00:28:59.417Z,956.23
2016-07-27T00:29:59.452Z,956.24
2016-07-27T00:30:59.479Z,956.21
2016-07-27T00:31:59.498Z,956.21
2016-07-27T00:32:59.528Z,956.22
2016-07-27T00:33:59.564Z,956.19
2016-07-27T00:34:59.584Z,956.17
2016-07-27T00:35:59.623Z,956.22
2016-07-27T00:36:59.640Z,956.2
2016-07-27T00:37:59.673Z,956.2
2016-07-27T00:38:59.694Z,956.14
2016-07-27T00:39:59.725Z,956.14
2016-07-27T00:40:59.752Z,956.15
2016-07-27T00:41:59.788Z,956.15
2016-07-27T00:42:59.814Z,956.14
2016-07-27T00:43:59.836Z,956.11
2016-07-27T00:44:59.863Z,956.12
2016-07-27T00:45:59.899Z,956.05
2016-07-27T00:46:59.919Z,956
2016-07-27T00:47:59.947Z,956
2016-07-27T00:48:59.976Z,956
2016-07-27T00:50:00.016Z,956.01
2016-07-27T00:51:00.029Z,956.02
2016-07-27T00:52:00.059Z,956.03
2016-07-27T00:53:00.086Z,956.04
2016-07-27T00:54:00.116Z,956
2016-07-27T00:55:00.143Z,955.99
2016-07-27T00:56:00.170Z,955.98
2016-07-27T00:57:00.197Z,955.98
2016-07-27T00:58:00.225Z,956.02
2016-07-27T00:59:00.257Z,956.06
2016-07-27T01:00:00.293Z,956
2016-07-27T01:01:00.307Z,956.01
2016-07-27T01:02:00.338Z,956.06
2016-07-27T01:03:00.363Z,956.03
2016-07-27T01:04:00.394Z,956
2016-07-27T01:05:00.421Z,956.01
2016-07-27T01:06:00.455Z,956.03
2016-07-27T01:07:00.475Z,956.04
2016-07-27T01:08:00.511Z,956.05
2016-07-27T01:09:00.542Z,956.04
2016-07-27T01:10:00.567Z,956.04
2016-07-27T01:11:00.587Z,956.08
2016-07-27T01:12:00.620Z,956.11
2016-07-27T01:13:00.642Z,956.1
2016-07-27T01:14:00.679Z,956.09
2016-07-27T01:15:00.696Z,956.03
2016-07-27T01:16:00.735Z,956.12
2016-07-27T01:17:00.753Z,956.1
2016-07-27T01:18:00.781Z,956.05
2016-07-27T01:19:00.807Z,956.03
2016-07-27T01:20:00.837Z,956.03
2016-07-27T01:21:00.866Z,956.03
2016-07-27T01:22:00.892Z,956.06
2016-07-27T01:23:00.919Z,956
2016-07-27T01:24:00.947Z,956
2016-07-27T01:25:00.975Z,956.04
2016-07-27T01:26:01.011Z,956
2016-07-27T01:27:01.031Z,955.99
2016-07-27T01:28:01.063Z,955.98
2016-07-27T01:29:01.087Z,955.91
2016-07-27T01:30:01.113Z,955.96
2016-07-27T01:31:01.153Z,955.94
2016-07-27T01:32:01.170Z,955.91
2016-07-27T01:33:01.196Z,955.92
2016-07-27T01:34:01.224Z,955.87
2016-07-27T01:35:01.337Z,955.89
2016-07-27T01:36:01.281Z,955.88
2016-07-27T01:37:01.310Z,955.87
2016-07-27T01:38:01.336Z,955.88
2016-07-27T01:39:01.363Z,955.84
2016-07-27T01:40:01.410Z,955.85
2016-07-27T01:41:01.419Z,955.81
2016-07-27T01:42:01.451Z,955.8
2016-07-27T01:43:01.475Z,955.81
2016-07-27T01:44:01.511Z,955.76
2016-07-27T01:45:01.529Z,955.74
2016-07-27T01:46:01.563Z,955.75
2016-07-27T01:47:01.587Z,955.7
2016-07-27T01:48:01.636Z,955.67
2016-07-27T01:49:01.640Z,955.7
2016-07-27T01:50:01.669Z,955.64
2016-07-27T01:51:01.696Z,955.63
2016-07-27T01:52:01.724Z,955.63
2016-07-27T01:53:01.751Z,955.65
2016-07-27T01:54:01.789Z,955.65
2016-07-27T01:55:01.808Z,955.66
2016-07-27T01:56:01.851Z,955.69
2016-07-27T01:57:01.862Z,955.66
2016-07-27T01:58:01.890Z,955.69
2016-07-27T01:59:01.918Z,955.72
2016-07-27T02:00:01.947Z,955.73
2016-07-27T02:01:01.974Z,955.68
2016-07-27T02:02:02.003Z,955.68
2016-07-27T02:03:02.027Z,955.63
2016-07-27T02:04:02.068Z,955.59
2016-07-27T02:05:02.085Z,955.58
2016-07-27T02:06:02.113Z,955.55
2016-07-27T02:07:02.140Z,955.59
2016-07-27T02:08:02.171Z,955.6
2016-07-27T02:09:02.196Z,955.56
2016-07-27T02:10:02.223Z,955.6
2016-07-27T02:11:02.252Z,955.62
2016-07-27T02:12:02.280Z,955.58
2016-07-27T02:13:02.307Z,955.63
2016-07-27T02:14:02.335Z,955.59
2016-07-27T02:15:02.362Z,955.59
2016-07-27T02:16:02.390Z,955.58
2016-07-27T02:17:02.418Z,955.59
2016-07-27T02:18:02.452Z,955.54
2016-07-27T02:19:02.473Z,955.55
2016-07-27T02:20:02.500Z,955.55
2016-07-27T02:21:02.527Z,955.54
2016-07-27T02:22:02.553Z,955.52
2016-07-27T02:23:02.583Z,955.54
2016-07-27T02:24:02.617Z,955.5
2016-07-27T02:25:02.638Z,955.52
2016-07-27T02:26:02.674Z,955.46
2016-07-27T02:27:02.692Z,955.48
2016-07-27T02:28:02.722Z,955.5
2016-07-27T02:29:02.747Z,955.49
2016-07-27T02:30:02.775Z,955.46
2016-07-27T02:31:02.804Z,955.47
2016-07-27T02:32:02.835Z,955.47
2016-07-27T02:33:02.857Z,955.47
2016-07-27T02:34:02.892Z,955.45
2016-07-27T02:35:02.914Z,955.43
2016-07-27T02:36:02.956Z,955.43
2016-07-27T02:37:02.968Z,955.42
2016-07-27T02:38:02.996Z,955.43
2016-07-27T02:39:03.025Z,955.39
2016-07-27T02:40:03.055Z,955.39
2016-07-27T02:41:03.080Z,955.35
2016-07-27T02:42:03.115Z,955.36
2016-07-27T02:43:03.134Z,955.37
2016-07-27T02:44:03.162Z,955.37
2016-07-27T02:45:03.189Z,955.35
2016-07-27T02:46:03.218Z,955.38
2016-07-27T02:47:03.244Z,955.37
2016-07-27T02:48:03.272Z,955.38
2016-07-27T02:49:03.299Z,955.37
2016-07-27T02:50:03.327Z,955.36
2016-07-27T02:51:03.353Z,955.37
2016-07-27T02:52:03.388Z,955.38
2016-07-27T02:53:03.410Z,955.36
2016-07-27T02:54:03.436Z,955.39
2016-07-27T02:55:03.464Z,955.37
2016-07-27T02:56:03.500Z,955.39
2016-07-27T02:57:03.520Z,955.38
2016-07-27T02:58:03.547Z,955.35
2016-07-27T02:59:03.575Z,955.34
2016-07-27T03:00:03.602Z,955.36
2016-07-27T03:01:03.630Z,955.34
2016-07-27T03:02:03.655Z,955.32
2016-07-27T03:03:03.685Z,955.33
2016-07-27T03:04:03.715Z,955.35
2016-07-27T03:05:03.739Z,955.32
2016-07-27T03:06:03.767Z,955.34
2016-07-27T03:07:03.796Z,955.32
2016-07-27T03:08:03.908Z,955.32
2016-07-27T03:09:03.849Z,955.32
2016-07-27T03:10:03.877Z,955.3
2016-07-27T03:11:03.904Z,955.28
2016-07-27T03:12:03.931Z,955.31
2016-07-27T03:13:03.965Z,955.27
2016-07-27T03:14:03.991Z,955.28
2016-07-27T03:15:04.015Z,955.26
2016-07-27T03:16:04.040Z,955.31
2016-07-27T03:17:04.068Z,955.28
2016-07-27T03:18:04.104Z,955.34
2016-07-27T03:19:04.124Z,955.3
2016-07-27T03:20:04.160Z,955.3
2016-07-27T03:21:04.178Z,955.25
2016-07-27T03:22:04.205Z,955.26
2016-07-27T03:23:04.233Z,955.25
2016-07-27T03:24:04.270Z,955.29
2016-07-27T03:25:04.286Z,955.28
2016-07-27T03:26:04.314Z,955.29
2016-07-27T03:27:04.342Z,955.3
2016-07-27T03:28:04.369Z,955.32
2016-07-27T03:29:04.398Z,955.33
2016-07-27T03:30:04.431Z,955.38
2016-07-27T03:31:04.450Z,955.44
2016-07-27T03:32:04.484Z,955.4
2016-07-27T03:33:04.506Z,955.37
2016-07-27T03:34:04.534Z,955.42
2016-07-27T03:35:04.560Z,955.34
2016-07-27T03:36:04.588Z,955.41
2016-07-27T03:37:04.615Z,955.34
2016-07-27T03:38:04.652Z,955.36
2016-07-27T03:39:04.671Z,955.4
2016-07-27T03:40:04.704Z,955.42
2016-07-27T03:41:04.725Z,955.42
2016-07-27T03:42:04.759Z,955.42
2016-07-27T03:43:04.779Z,955.47
2016-07-27T03:44:04.807Z,955.45
2016-07-27T03:45:04.835Z,955.47
2016-07-27T03:46:04.863Z,955.46
2016-07-27T03:47:04.891Z,955.47
2016-07-27T03:48:04.923Z,955.49
2016-07-27T03:49:04.944Z,955.44
2016-07-27T03:50:04.974Z,955.44
2016-07-27T03:51:05.000Z,955.44
2016-07-27T03:52:05.029Z,955.39
2016-07-27T03:53:05.054Z,955.43
2016-07-27T03:54:05.082Z,955.37
2016-07-27T03:55:05.109Z,955.4
2016-07-27T03:56:05.187Z,955.39
2016-07-27T03:57:05.163Z,955.39
2016-07-27T03:58:05.192Z,955.38
2016-07-27T03:59:05.219Z,955.38
2016-07-27T04:00:05.245Z,955.32
2016-07-27T04:01:05.272Z,955.27
2016-07-27T04:02:05.307Z,955.33
2016-07-27T04:03:05.328Z,955.32
2016-07-27T04:04:05.363Z,955.31
2016-07-27T04:05:05.382Z,955.31
2016-07-27T04:06:05.409Z,955.32
2016-07-27T04:08:05.471Z,955.28
2016-07-27T04:09:05.490Z,955.28
2016-07-27T04:10:05.524Z,955.29
2016-07-27T04:11:05.545Z,955.25
2016-07-27T04:12:05.581Z,955.27
2016-07-27T04:13:05.600Z,955.28
2016-07-27T04:14:05.629Z,955.25
2016-07-27T04:15:05.654Z,955.31
2016-07-27T04:16:05.690Z,955.3
2016-07-27T04:17:05.709Z,955.29
2016-07-27T04:18:05.736Z,955.25
2016-07-27T04:19:05.763Z,955.25
2016-07-27T04:20:05.790Z,955.24
2016-07-27T04:21:05.817Z,955.24
2016-07-27T04:23:05.871Z,955.26
2016-07-27T04:24:05.904Z,955.27
2016-07-27T04:25:05.926Z,955.23
2016-07-27T04:26:05.964Z,955.23
2016-07-27T04:27:05.981Z,955.24
2016-07-27T04:28:06.008Z,955.23
2016-07-27T04:29:06.034Z,955.22
2016-07-27T04:30:06.062Z,955.25
2016-07-27T04:31:06.089Z,955.2
2016-07-27T04:32:06.118Z,955.23
2016-07-27T04:33:06.143Z,955.23
2016-07-27T04:34:06.173Z,955.24
2016-07-27T04:35:06.199Z,955.24
2016-07-27T04:36:06.227Z,955.28
2016-07-27T04:37:06.252Z,955.27
2016-07-27T04:38:06.281Z,955.24
2016-07-27T04:39:06.309Z,955.23
2016-07-27T04:40:06.336Z,955.24
2016-07-27T04:41:06.364Z,955.23
2016-07-27T04:42:06.399Z,955.22
2016-07-27T04:43:06.417Z,955.24
2016-07-27T04:44:06.451Z,955.23
2016-07-27T04:45:06.473Z,955.29
2016-07-27T04:46:06.501Z,955.29
2016-07-27T04:47:06.530Z,955.27
2016-07-27T04:48:06.566Z,955.32
2016-07-27T04:49:06.584Z,955.29
2016-07-27T04:50:06.615Z,955.29
2016-07-27T04:51:06.637Z,955.32
2016-07-27T04:52:06.666Z,955.33
2016-07-27T04:53:06.693Z,955.33
2016-07-27T04:54:06.721Z,955.34
2016-07-27T04:55:06.746Z,955.34
2016-07-27T04:56:06.785Z,955.33
2016-07-27T04:57:06.803Z,955.34
2016-07-27T04:58:06.839Z,955.31
2016-07-27T04:59:06.858Z,955.34
2016-07-27T05:00:06.915Z,955.32
2016-07-27T05:01:06.913Z,955.33
2016-07-27T05:02:06.947Z,955.36
2016-07-27T05:03:06.967Z,955.37
2016-07-27T05:04:06.997Z,955.41
2016-07-27T05:05:07.023Z,955.44
2016-07-27T05:06:07.051Z,955.42
2016-07-27T05:07:07.079Z,955.44
2016-07-27T05:08:07.122Z,955.42
2016-07-27T05:09:07.135Z,955.45
2016-07-27T05:10:07.161Z,955.43
2016-07-27T05:11:07.190Z,955.43
2016-07-27T05:12:07.217Z,955.46
2016-07-27T05:13:07.245Z,955.4
2016-07-27T05:14:07.279Z,955.41
2016-07-27T05:15:07.300Z,955.39
2016-07-27T05:16:07.341Z,955.41
2016-07-27T05:17:07.355Z,955.42
2016-07-27T05:18:07.387Z,955.41
2016-07-27T05:19:07.411Z,955.42
2016-07-27T05:20:07.443Z,955.42
2016-07-27T05:21:07.466Z,955.45
2016-07-27T05:22:07.499Z,955.45
2016-07-27T05:23:07.523Z,955.42
2016-07-27T05:24:07.558Z,955.46
2016-07-27T05:25:07.578Z,955.5
2016-07-27T05:26:07.612Z,955.5
2016-07-27T05:27:07.633Z,955.51
2016-07-27T05:28:07.662Z,955.48
2016-07-27T05:29:07.689Z,955.56
2016-07-27T05:30:07.716Z,955.57
2016-07-27T05:31:07.743Z,955.53
2016-07-27T05:32:07.774Z,955.56
2016-07-27T05:33:07.798Z,955.52
2016-07-27T05:34:07.828Z,955.5
2016-07-27T05:35:07.854Z,955.5
2016-07-27T05:36:07.891Z,955.49
2016-07-27T05:37:07.910Z,955.53
2016-07-27T05:38:07.943Z,955.52
2016-07-27T05:39:07.966Z,955.55
2016-07-27T05:40:07.995Z,955.54
2016-07-27T05:41:08.022Z,955.52
2016-07-27T05:42:08.056Z,955.56
2016-07-27T05:43:08.079Z,955.56
2016-07-27T05:44:08.106Z,955.55
2016-07-27T05:45:08.134Z,955.57
2016-07-27T05:46:08.172Z,955.55
2016-07-27T05:47:08.190Z,955.57
2016-07-27T05:48:08.224Z,955.56
2016-07-27T05:49:08.247Z,955.57
2016-07-27T05:50:08.279Z,955.62
2016-07-27T05:51:08.302Z,955.6
2016-07-27T05:52:08.340Z,955.65
2016-07-27T05:53:08.358Z,955.65
2016-07-27T05:54:08.396Z,955.68
2016-07-27T05:55:08.415Z,955.73
2016-07-27T05:56:08.444Z,955.72
2016-07-27T05:57:08.471Z,955.7
2016-07-27T05:58:08.498Z,955.7
2016-07-27T05:59:08.532Z,955.73
2016-07-27T06:00:08.564Z,955.73
2016-07-27T06:01:08.583Z,955.67
2016-07-27T06:02:08.612Z,955.74
2016-07-27T06:03:08.640Z,955.67
2016-07-27T06:04:08.667Z,955.68
2016-07-27T06:05:08.697Z,955.69
2016-07-27T06:06:08.731Z,955.69
2016-07-27T06:07:08.753Z,955.61
2016-07-27T06:08:08.787Z,955.59
2016-07-27T06:09:08.809Z,955.58
2016-07-27T06:10:08.843Z,955.56
2016-07-27T06:11:08.866Z,955.54
2016-07-27T06:12:08.900Z,955.52
2016-07-27T06:13:08.923Z,955.58
2016-07-27T06:14:08.952Z,955.59
2016-07-27T06:15:08.979Z,955.58
2016-07-27T06:16:09.008Z,955.61
2016-07-27T06:17:09.035Z,955.64
2016-07-27T06:18:09.065Z,955.63
2016-07-27T06:19:09.092Z,955.62
2016-07-27T06:20:09.121Z,955.62
2016-07-27T06:21:09.172Z,955.62
2016-07-27T06:22:09.183Z,955.6
2016-07-27T06:23:09.206Z,955.6
2016-07-27T06:24:09.233Z,955.58
2016-07-27T06:25:09.263Z,955.58
2016-07-27T06:26:09.291Z,955.61
2016-07-27T06:27:09.319Z,955.62
2016-07-27T06:28:09.349Z,955.57
2016-07-27T06:29:09.388Z,955.56
2016-07-27T06:30:09.404Z,955.59
2016-07-27T06:31:09.433Z,955.59
2016-07-27T06:32:09.468Z,955.59
2016-07-27T06:33:09.490Z,955.6
2016-07-27T06:34:09.519Z,955.57
2016-07-27T06:35:09.547Z,955.58
2016-07-27T06:36:09.577Z,955.62
2016-07-27T06:37:09.605Z,955.59
2016-07-27T06:38:09.633Z,955.62
2016-07-27T06:39:09.663Z,955.62
2016-07-27T06:40:09.700Z,955.63
2016-07-27T06:41:09.719Z,955.67
2016-07-27T06:42:09.754Z,955.64
2016-07-27T06:43:09.777Z,955.64
2016-07-27T06:44:09.805Z,955.62
2016-07-27T06:45:09.837Z,955.6
2016-07-27T06:46:09.872Z,955.61
2016-07-27T06:47:09.891Z,955.61
2016-07-27T06:48:09.919Z,955.57
2016-07-27T06:49:09.947Z,955.55
2016-07-27T06:50:09.977Z,955.57
2016-07-27T06:51:10.005Z,955.6
2016-07-27T06:52:10.034Z,955.59
2016-07-27T06:53:10.062Z,955.63
2016-07-27T06:54:10.099Z,955.58
2016-07-27T06:55:10.120Z,955.57
2016-07-27T06:56:10.149Z,955.56
2016-07-27T06:57:10.178Z,955.57
2016-07-27T06:58:10.407Z,955.58
2016-07-27T06:59:10.235Z,955.55
2016-07-27T07:00:10.263Z,955.61
2016-07-27T07:01:10.292Z,955.61
2016-07-27T07:02:10.321Z,955.63
2016-07-27T07:03:10.350Z,955.67
2016-07-27T07:04:10.387Z,955.64
2016-07-27T07:05:10.406Z,955.68
2016-07-27T07:06:10.436Z,955.72
2016-07-27T07:07:10.463Z,955.69
2016-07-27T07:08:10.500Z,955.71
2016-07-27T07:09:10.534Z,955.73
2016-07-27T07:10:10.550Z,955.71
2016-07-27T07:11:10.579Z,955.72
2016-07-27T07:12:10.608Z,955.69
2016-07-27T07:13:10.637Z,955.7
2016-07-27T07:14:10.671Z,955.68
2016-07-27T07:15:10.695Z,955.66
2016-07-27T07:16:10.724Z,955.65
2016-07-27T07:17:10.751Z,955.63
2016-07-27T07:18:10.780Z,955.6
2016-07-27T07:19:10.808Z,955.62
2016-07-27T07:20:10.838Z,955.62
2016-07-27T07:21:10.865Z,955.58
2016-07-27T07:22:10.895Z,955.61
2016-07-27T07:23:10.924Z,955.6
2016-07-27T07:24:10.953Z,955.59
2016-07-27T07:25:10.983Z,955.62
2016-07-27T07:26:11.011Z,955.6
2016-07-27T07:27:11.040Z,955.62
2016-07-27T07:28:11.071Z,955.61
2016-07-27T07:29:11.096Z,955.64
2016-07-27T07:30:11.126Z,955.63
2016-07-27T07:31:11.155Z,955.66
2016-07-27T07:32:11.183Z,955.68
2016-07-27T07:33:11.211Z,955.65
2016-07-27T07:34:11.242Z,955.64
2016-07-27T07:35:11.271Z,955.59
2016-07-27T07:36:11.298Z,955.57
2016-07-27T07:37:11.328Z,955.55
2016-07-27T07:38:11.357Z,955.55
2016-07-27T07:39:11.385Z,955.56
2016-07-27T07:40:11.414Z,955.59
2016-07-27T07:41:11.443Z,955.59
2016-07-27T07:42:11.479Z,955.62
2016-07-27T07:43:11.501Z,955.61
2016-07-27T07:44:11.532Z,955.61
2016-07-27T07:45:11.560Z,955.61
2016-07-27T07:46:11.595Z,955.61
2016-07-27T07:47:11.616Z,955.59
2016-07-27T07:48:11.647Z,955.58
2016-07-27T07:49:11.675Z,955.61
2016-07-27T07:50:11.715Z,955.63
2016-07-27T07:51:11.733Z,955.65
2016-07-27T07:52:11.762Z,955.64
2016-07-27T07:53:11.790Z,955.55
2016-07-27T07:54:11.819Z,955.62
2016-07-27T07:55:11.849Z,955.6
2016-07-27T07:56:11.928Z,955.59
2016-07-27T07:57:11.908Z,955.58
2016-07-27T07:58:11.936Z,955.58
2016-07-27T07:59:11.964Z,955.58
2016-07-27T08:00:11.996Z,955.58
2016-07-27T08:01:12.023Z,955.64
2016-07-27T08:02:12.053Z,955.65
2016-07-27T08:03:12.082Z,955.62
2016-07-27T08:04:12.112Z,955.67
2016-07-27T08:05:12.140Z,955.64
2016-07-27T08:06:12.171Z,955.66
2016-07-27T08:07:12.199Z,955.68
2016-07-27T08:08:12.228Z,955.68
2016-07-27T08:09:12.257Z,955.71
2016-07-27T08:10:12.286Z,955.66
2016-07-27T08:11:12.316Z,955.65
2016-07-27T08:12:12.347Z,955.65
2016-07-27T08:13:12.375Z,955.7
2016-07-27T08:14:12.426Z,955.68
2016-07-27T08:15:12.433Z,955.7
2016-07-27T08:16:12.468Z,955.68
2016-07-27T08:17:12.491Z,955.71
2016-07-27T08:18:12.521Z,955.69
2016-07-27T08:19:12.551Z,955.66
2016-07-27T08:20:12.579Z,955.71
2016-07-27T08:21:12.609Z,955.69
2016-07-27T08:22:12.644Z,955.73
2016-07-27T08:23:12.667Z,955.69
2016-07-27T08:24:12.696Z,955.7
2016-07-27T08:25:12.726Z,955.71
2016-07-27T08:26:12.756Z,955.77
2016-07-27T08:27:12.785Z,955.72
2016-07-27T08:28:12.815Z,955.71
2016-07-27T08:29:12.844Z,955.69
2016-07-27T08:30:12.874Z,955.73
2016-07-27T08:31:12.905Z,955.74
2016-07-27T08:32:12.933Z,955.71
2016-07-27T08:33:12.964Z,955.73
2016-07-27T08:34:12.992Z,955.72
2016-07-27T08:35:13.022Z,955.72
2016-07-27T08:36:13.066Z,955.69
2016-07-27T08:37:13.082Z,955.7
2016-07-27T08:38:13.110Z,955.7
2016-07-27T08:39:13.140Z,955.71
2016-07-27T08:40:13.169Z,955.71
2016-07-27T08:41:13.199Z,955.69
2016-07-27T08:42:13.229Z,955.7
2016-07-27T08:43:13.259Z,955.73
2016-07-27T08:44:13.289Z,955.68
2016-07-27T08:45:13.318Z,955.67
2016-07-27T08:46:13.347Z,955.64
2016-07-27T08:47:13.387Z,955.66
2016-07-27T08:48:13.409Z,955.62
2016-07-27T08:49:13.438Z,955.66
2016-07-27T08:50:13.470Z,955.65
2016-07-27T08:51:13.498Z,955.63
2016-07-27T08:52:13.527Z,955.62
2016-07-27T08:53:13.557Z,955.64
2016-07-27T08:54:13.586Z,955.66
2016-07-27T08:55:13.617Z,955.66
2016-07-27T08:56:13.646Z,955.66
2016-07-27T08:57:13.678Z,955.68
2016-07-27T08:58:13.714Z,955.67
2016-07-27T08:59:13.737Z,955.67
2016-07-27T09:00:13.765Z,955.65
2016-07-27T09:01:13.796Z,955.66
2016-07-27T09:02:13.827Z,955.68
2016-07-27T09:03:13.856Z,955.69
2016-07-27T09:04:13.888Z,955.62
2016-07-27T09:05:13.917Z,955.67
2016-07-27T09:06:13.950Z,955.67
2016-07-27T09:07:13.978Z,955.66
2016-07-27T09:08:14.013Z,955.67
2016-07-27T09:09:14.038Z,955.68
2016-07-27T09:10:14.071Z,955.7
2016-07-27T09:11:14.098Z,955.7
2016-07-27T09:12:14.129Z,955.7
2016-07-27T09:13:14.158Z,955.68
2016-07-27T09:14:14.189Z,955.72
2016-07-27T09:15:14.218Z,955.77
2016-07-27T09:16:14.249Z,955.75
2016-07-27T09:17:14.279Z,955.73
2016-07-27T09:18:14.313Z,955.74
2016-07-27T09:19:14.340Z,955.75
2016-07-27T09:20:14.371Z,955.75
2016-07-27T09:21:14.402Z,955.78
2016-07-27T09:22:14.435Z,955.8
2016-07-27T09:23:14.461Z,955.8
2016-07-27T09:24:14.491Z,955.79
2016-07-27T09:25:14.522Z,955.82
2016-07-27T09:26:14.552Z,955.81
2016-07-27T09:27:14.582Z,955.79
2016-07-27T09:28:14.634Z,955.77
2016-07-27T09:29:14.643Z,955.79
2016-07-27T09:30:14.673Z,955.73
2016-07-27T09:31:14.704Z,955.74
2016-07-27T09:32:14.735Z,955.73
2016-07-27T09:33:14.765Z,955.75
2016-07-27T09:34:14.796Z,955.73
2016-07-27T09:35:14.827Z,955.76
2016-07-27T09:36:14.858Z,955.7
2016-07-27T09:37:14.887Z,955.67
2016-07-27T09:38:14.917Z,955.7
2016-07-27T09:39:14.949Z,955.68
2016-07-27T09:40:14.978Z,955.67
2016-07-27T09:41:15.010Z,955.67
2016-07-27T09:42:15.041Z,955.68
2016-07-27T09:43:15.070Z,955.69
2016-07-27T09:44:15.120Z,955.7
2016-07-27T09:45:15.132Z,955.7
2016-07-27T09:46:15.172Z,955.73
2016-07-27T09:47:15.194Z,955.72
2016-07-27T09:48:15.225Z,955.66
2016-07-27T09:49:15.256Z,955.73
2016-07-27T09:50:15.287Z,955.74
2016-07-27T09:51:15.319Z,955.69
2016-07-27T09:52:15.354Z,955.72
2016-07-27T09:53:15.382Z,955.71
2016-07-27T09:54:15.419Z,955.7
2016-07-27T09:55:15.441Z,955.72
2016-07-27T09:56:15.473Z,955.72
2016-07-27T09:57:15.503Z,955.71
2016-07-27T09:58:15.534Z,955.7
2016-07-27T09:59:15.566Z,955.64
2016-07-27T10:00:15.598Z,955.68
2016-07-27T10:01:15.648Z,955.67
2016-07-27T10:02:15.660Z,955.67
2016-07-27T10:03:15.692Z,955.65
2016-07-27T10:04:15.723Z,955.66
2016-07-27T10:05:15.755Z,955.66
2016-07-27T10:06:15.785Z,955.65
2016-07-27T10:07:15.818Z,955.62
2016-07-27T10:08:15.850Z,955.62
2016-07-27T10:09:15.880Z,955.63
2016-07-27T10:10:15.911Z,955.6
2016-07-27T10:11:15.949Z,955.61
2016-07-27T10:12:15.975Z,955.61
2016-07-27T10:13:16.005Z,955.59
2016-07-27T10:14:16.037Z,955.55
2016-07-27T10:15:16.068Z,955.56
2016-07-27T10:16:16.099Z,955.53
2016-07-27T10:17:16.143Z,955.52
2016-07-27T10:18:16.163Z,955.55
2016-07-27T10:19:16.195Z,955.51
2016-07-27T10:20:16.226Z,955.47
2016-07-27T10:21:16.257Z,955.47
2016-07-27T10:22:16.291Z,955.39
2016-07-27T10:23:16.321Z,955.39
2016-07-27T10:24:16.353Z,955.37
2016-07-27T10:25:16.385Z,955.38
2016-07-27T10:26:16.417Z,955.36
2016-07-27T10:27:16.448Z,955.32
2016-07-27T10:28:16.479Z,955.3
2016-07-27T10:29:16.511Z,955.35
2016-07-27T10:30:16.542Z,955.31
2016-07-27T10:31:16.608Z,955.34
2016-07-27T10:32:16.608Z,955.28
2016-07-27T10:33:16.637Z,955.32
2016-07-27T10:34:16.670Z,955.25
2016-07-27T10:35:16.701Z,955.27
2016-07-27T10:36:16.733Z,955.2
2016-07-27T10:37:16.769Z,955.22
2016-07-27T10:39:16.828Z,955.21
2016-07-27T10:40:16.860Z,955.2
2016-07-27T10:41:16.892Z,955.19
2016-07-27T10:42:16.924Z,955.14
2016-07-27T10:43:16.956Z,955.16
2016-07-27T10:44:16.987Z,955.12
2016-07-27T10:45:17.019Z,955.11
2016-07-27T10:46:17.051Z,955.09
2016-07-27T10:47:17.082Z,955.08
2016-07-27T10:48:17.115Z,955.06
2016-07-27T10:49:17.145Z,955.08
2016-07-27T10:50:17.179Z,955.1
2016-07-27T10:52:17.242Z,955.13
2016-07-27T10:53:17.275Z,955.09
2016-07-27T10:54:17.307Z,955.07
2016-07-27T10:55:17.338Z,955.04
2016-07-27T10:56:17.371Z,955.04
2016-07-27T10:57:17.401Z,955.01
2016-07-27T10:58:17.435Z,954.98
2016-07-27T10:59:17.474Z,954.97
2016-07-27T11:00:17.499Z,954.98
2016-07-27T11:01:17.531Z,954.96
2016-07-27T11:02:17.565Z,954.92
2016-07-27T11:03:17.596Z,954.94
2016-07-27T11:04:17.627Z,954.93
2016-07-27T11:05:17.661Z,954.93
2016-07-27T11:06:17.693Z,954.93
2016-07-27T11:07:17.726Z,954.88
2016-07-27T11:09:17.791Z,954.83
2016-07-27T11:10:17.823Z,954.88
2016-07-27T11:11:17.855Z,954.81
2016-07-27T11:12:17.887Z,954.77
2016-07-27T11:13:17.926Z,954.79
2016-07-27T11:14:17.953Z,954.8
2016-07-27T11:15:17.995Z,954.83
2016-07-27T11:16:18.017Z,954.81
2016-07-27T11:17:18.050Z,954.79
2016-07-27T11:18:18.081Z,954.8
2016-07-27T11:19:18.114Z,954.76
2016-07-27T11:20:18.147Z,954.72
2016-07-27T11:21:18.180Z,954.69
2016-07-27T11:22:18.212Z,954.7
2016-07-27T11:23:18.244Z,954.71
2016-07-27T11:24:18.279Z,954.69
2016-07-27T11:25:18.309Z,954.63
2016-07-27T11:26:18.342Z,954.62
2016-07-27T11:27:18.375Z,954.62
2016-07-27T11:28:18.407Z,954.6
2016-07-27T11:29:18.438Z,954.57
2016-07-27T11:30:18.471Z,954.58
2016-07-27T11:31:18.503Z,954.6
2016-07-27T11:32:18.556Z,954.59
2016-07-27T11:33:18.567Z,954.52
2016-07-27T11:34:18.602Z,954.54
2016-07-27T11:35:18.635Z,954.53
2016-07-27T11:36:18.667Z,954.47
2016-07-27T11:37:18.698Z,954.49
2016-07-27T11:39:18.763Z,954.46
2016-07-27T11:40:18.796Z,954.48
2016-07-27T11:41:18.830Z,954.44
2016-07-27T11:42:18.863Z,954.41
2016-07-27T11:43:18.895Z,954.37
2016-07-27T11:44:18.927Z,954.39
2016-07-27T11:45:18.958Z,954.36
2016-07-27T11:46:18.993Z,954.31
2016-07-27T11:47:19.024Z,954.33
2016-07-27T11:48:19.056Z,954.35
2016-07-27T11:49:19.098Z,954.32
2016-07-27T11:50:19.122Z,954.28
2016-07-27T11:51:19.154Z,954.25
2016-07-27T11:52:19.187Z,954.27
2016-07-27T11:54:19.253Z,954.21
2016-07-27T11:55:19.285Z,954.25
2016-07-27T11:56:19.318Z,954.27
2016-07-27T11:57:19.360Z,954.25
2016-07-27T11:58:19.382Z,954.22
2016-07-27T11:59:19.414Z,954.18
2016-07-27T12:00:19.449Z,954.22
2016-07-27T12:01:19.481Z,954.21
2016-07-27T12:02:19.513Z,954.19
2016-07-27T12:03:19.546Z,954.17
2016-07-27T12:04:19.580Z,954.18
2016-07-27T12:05:19.612Z,954.14
2016-07-27T12:06:19.644Z,954.16
2016-07-27T12:07:19.679Z,954.15
2016-07-27T12:09:19.743Z,954.1
2016-07-27T12:10:19.775Z,954.11
2016-07-27T12:11:19.810Z,954.06
2016-07-27T12:12:19.841Z,954.07
2016-07-27T12:13:19.877Z,954.06
2016-07-27T12:14:19.913Z,954.1
2016-07-27T12:15:19.939Z,954.05
2016-07-27T12:16:19.974Z,954.11
2016-07-27T12:17:20.006Z,954.09
2016-07-27T12:18:20.039Z,954.07
2016-07-27T12:19:20.073Z,954.08
2016-07-27T12:20:20.105Z,954.11
2016-07-27T12:21:20.137Z,954.05
2016-07-27T12:22:20.171Z,954.09
2016-07-27T12:24:20.236Z,954.01
2016-07-27T12:25:20.269Z,954.01
2016-07-27T12:26:20.303Z,954.04
2016-07-27T12:27:20.336Z,954.04
2016-07-27T12:28:20.369Z,954.05
2016-07-27T12:29:20.402Z,954.02
2016-07-27T12:30:20.436Z,954
2016-07-27T12:31:20.475Z,954.07
2016-07-27T12:32:20.502Z,954.1
2016-07-27T12:33:20.536Z,954.03
2016-07-27T12:34:20.571Z,954.05
2016-07-27T12:35:20.601Z,954.06
2016-07-27T12:36:20.634Z,954.02
2016-07-27T12:37:20.668Z,954.03
2016-07-27T12:39:20.753Z,953.97
2016-07-27T12:40:20.768Z,953.97
2016-07-27T12:41:20.801Z,953.97
2016-07-27T12:42:20.834Z,953.96
2016-07-27T12:43:20.867Z,953.93